KGSB/GSB METAR and TAF weather

Enter ICAO airport designator
Station Type Date Time Source
KGSB METAR 2020/07/11 17:56 UTC NOAA

KGSB 111756Z AUTO 27005KT 10SM FEW120 FEW160 SCT190 32/22 A2980 RMK AO2 SLP093 T03240222 10324 20229 57011 $


Station Type Date Time Source
KGSB Decoded METAR 2020/07/11 17:56 UTC NOAA

Seymour-Johnson Air Force Base, NC, United States (KGSB) 35-20N 077-58W
Jul 11, 2020 - 01:56 PM EDT / 2020.07.11 1756 UTC
Wind: from the W (270 degrees) at 6 MPH (5 KT):0
Visibility: 10 mile(s):0
Sky conditions: partly cloudy
Temperature: 90.3 F (32.4 C)
Heat index: 97.7 F (36.5 C):1
Dew Point: 72.0 F (22.2 C)
Relative Humidity: 55%
Pressure (altimeter): 29.8 in. Hg (1009 hPa)
Pressure tendency: 0.03 inches (1.1 hPa) lower than three hours ago
ob: KGSB 111756Z AUTO 27005KT 10SM FEW120 FEW160 SCT190 32/22 A2980 RMK AO2 SLP093 T03240222 10324 20229 57011
cycle: 18

Station Type Date Time Source
KGSB TAF 2020/07/10 23:03 UTC NOAA

TAF TAF
AMD KGSB 092358Z 0923/1102 02005KT 9999 SCT020 SCT100 QNH2980INS
BECMG 1001/1002 01007KT 9999 BKN015 QNH2984INS
BECMG 1007/1008 34008KT 9999 BKN008 OVC010 QNH2985INS
BECMG 1013/1014 34012G18KT 9999 BKN020 QNH2986INS
BECMG 1015/1016 33009KT 9999 SCT020 BKN040 QNH2986INS TX28/0923Z TN23/1010Z LAST NO
AMDS AFT 1000 NEXT 1004

Example: see airport list